EZY27AR EDDM-ESGG
Flight info
| Callsign | EZY27AR |
|---|---|
| Flight time | 2h 0m |
| Altitude | 34000 |
| Route | INPUD2N/26R INPUD Y102 UPALA M726 LONLI/N0423F360 M726 LASGA/N0430F370 DCT NEDIK/N0422F360 DCT ROKAM L997 RISMA |
| Aircraft | A20N/M-SDE2E3FGHIRWXY/LB1 |
Departure
| Time | 2026-05-06 15:38 |
|---|---|
| Airport | Munich Airport (EDDM) |
Arrival
| Time | 2026-05-06 17:38 |
|---|---|
| Airport | Göteborg Landvetter Airport (ESGG) |
| Time | Latitude | Longitude | Altitude | Speed | Heading |
|---|---|---|---|---|---|
| 2026-05-06 15:10 | 48.35239 | 11.80018 | 1470 ft | 0 kts | 263° |
| 2026-05-06 15:18 | 48.35241 | 11.80038 | 1460 ft | 3 kts | 263° |
| 2026-05-06 15:18 | 48.35243 | 11.80066 | 1466 ft | 3 kts | 263° |
| 2026-05-06 15:18 | 48.35244 | 11.80092 | 1467 ft | 3 kts | 302° |
| 2026-05-06 15:19 | 48.35230 | 11.80106 | 1463 ft | 2 kts | 14° |
| 2026-05-06 15:19 | 48.35216 | 11.80090 | 1462 ft | 3 kts | 68° |
| 2026-05-06 15:19 | 48.35214 | 11.80080 | 1460 ft | 1 kts | 69° |
| 2026-05-06 15:19 | 48.35214 | 11.80079 | 1460 ft | 0 kts | 67° |
| 2026-05-06 15:21 | 48.35216 | 11.80084 | 1461 ft | 3 kts | 67° |
| 2026-05-06 15:21 | 48.35226 | 11.80118 | 1465 ft | 4 kts | 56° |
| 2026-05-06 15:21 | 48.35248 | 11.80142 | 1466 ft | 4 kts | 21° |
| 2026-05-06 15:22 | 48.35251 | 11.80142 | 1466 ft | 0 kts | 1° |
| 2026-05-06 15:24 | 48.35253 | 11.80142 | 1462 ft | 2 kts | 1° |
| 2026-05-06 15:24 | 48.35256 | 11.80142 | 1462 ft | 2 kts | 1° |
| 2026-05-06 15:24 | 48.35268 | 11.80143 | 1461 ft | 1 kts | 1° |
| 2026-05-06 15:25 | 48.35283 | 11.80142 | 1468 ft | 5 kts | 358° |
| 2026-05-06 15:25 | 48.35337 | 11.80133 | 1465 ft | 10 kts | 353° |
| 2026-05-06 15:25 | 48.35396 | 11.80134 | 1466 ft | 3 kts | 39° |
| 2026-05-06 15:25 | 48.35409 | 11.80160 | 1463 ft | 3 kts | 45° |
| 2026-05-06 15:26 | 48.35425 | 11.80167 | 1468 ft | 2 kts | 3° |
| 2026-05-06 15:26 | 48.35455 | 11.80163 | 1466 ft | 6 kts | 353° |
| 2026-05-06 15:26 | 48.35512 | 11.80154 | 1466 ft | 10 kts | 354° |
| 2026-05-06 15:26 | 48.35573 | 11.80143 | 1467 ft | 10 kts | 353° |
| 2026-05-06 15:27 | 48.35624 | 11.80130 | 1468 ft | 7 kts | 340° |
| 2026-05-06 15:27 | 48.35675 | 11.80088 | 1462 ft | 9 kts | 337° |
| 2026-05-06 15:27 | 48.35739 | 11.80072 | 1467 ft | 4 kts | 353° |
| 2026-05-06 15:27 | 48.35740 | 11.80072 | 1467 ft | 0 kts | 353° |
| 2026-05-06 15:28 | 48.35741 | 11.80072 | 1467 ft | 1 kts | 353° |
| 2026-05-06 15:28 | 48.35763 | 11.80067 | 1467 ft | 1 kts | 352° |
| 2026-05-06 15:28 | 48.35782 | 11.80065 | 1464 ft | 0 kts | 355° |
| 2026-05-06 15:29 | 48.35791 | 11.80061 | 1470 ft | 3 kts | 340° |
| 2026-05-06 15:29 | 48.35823 | 11.80028 | 1470 ft | 8 kts | 313° |
| 2026-05-06 15:29 | 48.35846 | 11.79940 | 1465 ft | 11 kts | 271° |
| 2026-05-06 15:30 | 48.35839 | 11.79832 | 1467 ft | 12 kts | 263° |
| 2026-05-06 15:30 | 48.35830 | 11.79710 | 1470 ft | 9 kts | 263° |
| 2026-05-06 15:30 | 48.35821 | 11.79599 | 1470 ft | 13 kts | 263° |
| 2026-05-06 15:30 | 48.35818 | 11.79552 | 1460 ft | 3 kts | 263° |
| 2026-05-06 15:31 | 48.35820 | 11.79530 | 1470 ft | 1 kts | 317° |
| 2026-05-06 15:31 | 48.35830 | 11.79528 | 1470 ft | 3 kts | 348° |
| 2026-05-06 15:31 | 48.35869 | 11.79520 | 1467 ft | 8 kts | 356° |
| 2026-05-06 15:32 | 48.36028 | 11.79492 | 1465 ft | 15 kts | 352° |
| 2026-05-06 15:32 | 48.36125 | 11.79476 | 1464 ft | 14 kts | 353° |
| 2026-05-06 15:32 | 48.36213 | 11.79510 | 1468 ft | 13 kts | 66° |
| 2026-05-06 15:32 | 48.36228 | 11.79669 | 1471 ft | 17 kts | 83° |
| 2026-05-06 15:33 | 48.36245 | 11.79873 | 1470 ft | 22 kts | 83° |
| 2026-05-06 15:33 | 48.36262 | 11.80082 | 1471 ft | 19 kts | 83° |
| 2026-05-06 15:33 | 48.36274 | 11.80250 | 1469 ft | 15 kts | 84° |
| 2026-05-06 15:33 | 48.36288 | 11.80434 | 1471 ft | 20 kts | 83° |
| 2026-05-06 15:34 | 48.36302 | 11.80625 | 1471 ft | 20 kts | 83° |
| 2026-05-06 15:34 | 48.36320 | 11.80846 | 1470 ft | 19 kts | 83° |
| 2026-05-06 15:34 | 48.36334 | 11.81035 | 1470 ft | 20 kts | 83° |
| 2026-05-06 15:34 | 48.36347 | 11.81204 | 1470 ft | 19 kts | 83° |
| 2026-05-06 15:35 | 48.36364 | 11.81429 | 1470 ft | 25 kts | 83° |
| 2026-05-06 15:35 | 48.36379 | 11.81623 | 1461 ft | 13 kts | 83° |
| 2026-05-06 15:35 | 48.36391 | 11.81779 | 1462 ft | 16 kts | 83° |
| 2026-05-06 15:35 | 48.36394 | 11.81933 | 1460 ft | 14 kts | 104° |
| 2026-05-06 15:36 | 48.36420 | 11.82017 | 1465 ft | 10 kts | 7° |
| 2026-05-06 15:36 | 48.36477 | 11.82005 | 1464 ft | 9 kts | 353° |
| 2026-05-06 15:36 | 48.36542 | 11.81994 | 1462 ft | 10 kts | 353° |
| 2026-05-06 15:36 | 48.36613 | 11.81979 | 1469 ft | 11 kts | 347° |
| 2026-05-06 15:37 | 48.36669 | 11.81914 | 1468 ft | 8 kts | 290° |
| 2026-05-06 15:37 | 48.36667 | 11.81830 | 1459 ft | 7 kts | 264° |
| 2026-05-06 15:37 | 48.36658 | 11.81712 | 1467 ft | 41 kts | 263° |
| 2026-05-06 15:37 | 48.36586 | 11.80775 | 1470 ft | 139 kts | 263° |
| 2026-05-06 15:38 | 48.36453 | 11.79069 | 1879 ft | 182 kts | 264° |
| 2026-05-06 15:38 | 48.36325 | 11.77170 | 2939 ft | 185 kts | 265° |
| 2026-05-06 15:38 | 48.36185 | 11.75091 | 3534 ft | 219 kts | 264° |
| 2026-05-06 15:38 | 48.36008 | 11.72690 | 4344 ft | 239 kts | 263° |
| 2026-05-06 15:39 | 48.35860 | 11.70170 | 5488 ft | 245 kts | 269° |
| 2026-05-06 15:39 | 48.36205 | 11.67686 | 6315 ft | 245 kts | 295° |
| 2026-05-06 15:39 | 48.37370 | 11.65752 | 6696 ft | 267 kts | 328° |
| 2026-05-06 15:39 | 48.39180 | 11.64766 | 6779 ft | 285 kts | 347° |
| 2026-05-06 15:40 | 48.41140 | 11.64212 | 6795 ft | 287 kts | 350° |
| 2026-05-06 15:40 | 48.43111 | 11.63712 | 6785 ft | 287 kts | 350° |
| 2026-05-06 15:40 | 48.45078 | 11.63192 | 6795 ft | 287 kts | 349° |
| 2026-05-06 15:40 | 48.47040 | 11.62649 | 6794 ft | 287 kts | 349° |
| 2026-05-06 15:41 | 48.49023 | 11.62085 | 7126 ft | 293 kts | 349° |
| 2026-05-06 15:41 | 48.51030 | 11.61505 | 7603 ft | 292 kts | 349° |
| 2026-05-06 15:41 | 48.53010 | 11.60931 | 7747 ft | 289 kts | 349° |
| 2026-05-06 15:41 | 48.54989 | 11.60351 | 7762 ft | 290 kts | 348° |
| 2026-05-06 15:42 | 48.56963 | 11.59685 | 7769 ft | 291 kts | 343° |
| 2026-05-06 15:42 | 48.58881 | 11.58700 | 7766 ft | 291 kts | 339° |
| 2026-05-06 15:42 | 48.60772 | 11.57617 | 7773 ft | 291 kts | 339° |
| 2026-05-06 15:42 | 48.62660 | 11.56517 | 7773 ft | 290 kts | 338° |
| 2026-05-06 15:43 | 48.64542 | 11.55420 | 7772 ft | 291 kts | 338° |
| 2026-05-06 15:43 | 48.66429 | 11.54323 | 7854 ft | 291 kts | 338° |
| 2026-05-06 15:43 | 48.68343 | 11.53212 | 8551 ft | 298 kts | 338° |
| 2026-05-06 15:43 | 48.70278 | 11.52090 | 9821 ft | 298 kts | 338° |
| 2026-05-06 15:44 | 48.72252 | 11.50946 | 10696 ft | 313 kts | 337° |
| 2026-05-06 15:44 | 48.74336 | 11.49734 | 11553 ft | 327 kts | 336° |
| 2026-05-06 15:44 | 48.76493 | 11.48479 | 12635 ft | 335 kts | 335° |
| 2026-05-06 15:44 | 48.78681 | 11.47208 | 13781 ft | 339 kts | 335° |
| 2026-05-06 15:45 | 48.80905 | 11.45915 | 14768 ft | 346 kts | 335° |
| 2026-05-06 15:45 | 48.83182 | 11.44589 | 15754 ft | 354 kts | 334° |
| 2026-05-06 15:45 | 48.85507 | 11.43234 | 16742 ft | 361 kts | 334° |
| 2026-05-06 15:45 | 48.87867 | 11.41858 | 17707 ft | 366 kts | 334° |
| 2026-05-06 15:46 | 48.90256 | 11.40465 | 18384 ft | 369 kts | 334° |
| 2026-05-06 15:46 | 48.92667 | 11.39059 | 18687 ft | 373 kts | 334° |
| 2026-05-06 15:46 | 48.95059 | 11.37663 | 18761 ft | 374 kts | 334° |
| 2026-05-06 15:46 | 48.97527 | 11.36220 | 18765 ft | 375 kts | 335° |
| 2026-05-06 15:47 | 48.99959 | 11.34797 | 18760 ft | 374 kts | 335° |
| 2026-05-06 15:47 | 49.02387 | 11.33375 | 18759 ft | 374 kts | 335° |
| 2026-05-06 15:47 | 49.04811 | 11.31954 | 18758 ft | 373 kts | 335° |
| 2026-05-06 15:47 | 49.07203 | 11.30549 | 18761 ft | 373 kts | 335° |
| 2026-05-06 15:48 | 49.09656 | 11.29106 | 18760 ft | 373 kts | 335° |
| 2026-05-06 15:48 | 49.12045 | 11.27699 | 18762 ft | 373 kts | 335° |
| 2026-05-06 15:48 | 49.14464 | 11.26272 | 18759 ft | 373 kts | 335° |
| 2026-05-06 15:48 | 49.16887 | 11.24841 | 18763 ft | 373 kts | 335° |
| 2026-05-06 15:49 | 49.19336 | 11.23531 | 18763 ft | 375 kts | 340° |
| 2026-05-06 15:49 | 49.21891 | 11.22648 | 18766 ft | 378 kts | 348° |
| 2026-05-06 15:49 | 49.24522 | 11.22262 | 18770 ft | 381 kts | 353° |
| 2026-05-06 15:49 | 49.27170 | 11.22108 | 18769 ft | 381 kts | 356° |
| 2026-05-06 15:50 | 49.29828 | 11.22080 | 18771 ft | 382 kts | 357° |
| 2026-05-06 15:50 | 49.32487 | 11.22116 | 18772 ft | 382 kts | 358° |
| 2026-05-06 15:50 | 49.35145 | 11.22174 | 18772 ft | 382 kts | 358° |
| 2026-05-06 15:50 | 49.37804 | 11.22231 | 18773 ft | 382 kts | 358° |
| 2026-05-06 15:51 | 49.40464 | 11.22278 | 18773 ft | 382 kts | 358° |
| 2026-05-06 15:51 | 49.43120 | 11.22315 | 18791 ft | 382 kts | 358° |
| 2026-05-06 15:51 | 49.45768 | 11.22343 | 18775 ft | 379 kts | 358° |
| 2026-05-06 15:51 | 49.48395 | 11.22368 | 18774 ft | 377 kts | 358° |
| 2026-05-06 15:52 | 49.51011 | 11.22389 | 18775 ft | 376 kts | 358° |
| 2026-05-06 15:52 | 49.53631 | 11.22409 | 18774 ft | 376 kts | 358° |
| 2026-05-06 15:52 | 49.56245 | 11.22425 | 18775 ft | 376 kts | 358° |
| 2026-05-06 15:52 | 49.58861 | 11.22432 | 18772 ft | 376 kts | 358° |
| 2026-05-06 15:53 | 49.61477 | 11.22436 | 18771 ft | 376 kts | 358° |
| 2026-05-06 15:53 | 49.64093 | 11.22439 | 18772 ft | 376 kts | 358° |
| 2026-05-06 15:53 | 49.66674 | 11.22442 | 18773 ft | 375 kts | 358° |
| 2026-05-06 15:53 | 49.69314 | 11.22446 | 18768 ft | 375 kts | 358° |
| 2026-05-06 15:54 | 49.71892 | 11.22451 | 18884 ft | 376 kts | 358° |
| 2026-05-06 15:54 | 49.74561 | 11.22455 | 19558 ft | 381 kts | 358° |
| 2026-05-06 15:54 | 49.76322 | 11.22458 | 20188 ft | 382 kts | 358° |
| 2026-05-06 15:54 | 49.79860 | 11.22471 | 21370 ft | 386 kts | 358° |
| 2026-05-06 15:55 | 49.81681 | 11.22481 | 21927 ft | 389 kts | 358° |
| 2026-05-06 15:55 | 49.85301 | 11.22502 | 22965 ft | 396 kts | 358° |
| 2026-05-06 15:55 | 49.88075 | 11.22518 | 23662 ft | 401 kts | 358° |
| 2026-05-06 15:55 | 49.90878 | 11.22535 | 24294 ft | 405 kts | 358° |
| 2026-05-06 15:56 | 49.92796 | 11.22547 | 24698 ft | 409 kts | 358° |
| 2026-05-06 15:56 | 49.95655 | 11.22564 | 25262 ft | 414 kts | 358° |
| 2026-05-06 15:56 | 49.98553 | 11.22581 | 25810 ft | 419 kts | 358° |
| 2026-05-06 15:56 | 50.01486 | 11.22598 | 26362 ft | 424 kts | 358° |
| 2026-05-06 15:57 | 50.04452 | 11.22615 | 26899 ft | 429 kts | 357° |
| 2026-05-06 15:57 | 50.07455 | 11.22632 | 27420 ft | 433 kts | 357° |
| 2026-05-06 15:57 | 50.10481 | 11.22650 | 27947 ft | 437 kts | 357° |
| 2026-05-06 15:57 | 50.13504 | 11.22667 | 28392 ft | 443 kts | 357° |
| 2026-05-06 15:58 | 50.16646 | 11.22685 | 28875 ft | 448 kts | 357° |
| 2026-05-06 15:58 | 50.19731 | 11.22703 | 29392 ft | 451 kts | 357° |
| 2026-05-06 15:58 | 50.22885 | 11.22722 | 29884 ft | 455 kts | 357° |
| 2026-05-06 15:58 | 50.26064 | 11.22741 | 30290 ft | 458 kts | 356° |
| 2026-05-06 15:59 | 50.29254 | 11.22762 | 30838 ft | 458 kts | 356° |
| 2026-05-06 15:59 | 50.32432 | 11.22784 | 31437 ft | 455 kts | 356° |
| 2026-05-06 15:59 | 50.35596 | 11.22895 | 32006 ft | 456 kts | 1° |
| 2026-05-06 15:59 | 50.38755 | 11.23348 | 32554 ft | 456 kts | 2° |
| 2026-05-06 16:00 | 50.41909 | 11.23868 | 33060 ft | 456 kts | 2° |
| 2026-05-06 16:00 | 50.45063 | 11.24431 | 33562 ft | 455 kts | 2° |
| 2026-05-06 16:00 | 50.48207 | 11.25017 | 34002 ft | 455 kts | 2° |
| 2026-05-06 16:00 | 50.51344 | 11.25611 | 34426 ft | 453 kts | 3° |
| 2026-05-06 16:01 | 50.54473 | 11.26206 | 34842 ft | 452 kts | 3° |
| 2026-05-06 16:01 | 50.57593 | 11.26796 | 35254 ft | 451 kts | 3° |
| 2026-05-06 16:01 | 50.60703 | 11.27382 | 35625 ft | 451 kts | 4° |
| 2026-05-06 16:01 | 50.63836 | 11.27968 | 35738 ft | 454 kts | 4° |
| 2026-05-06 16:02 | 50.70086 | 11.29139 | 35746 ft | 452 kts | 4° |
| 2026-05-06 16:02 | 50.76329 | 11.30310 | 35747 ft | 452 kts | 4° |
| 2026-05-06 16:03 | 50.82566 | 11.31487 | 35748 ft | 452 kts | 4° |
| 2026-05-06 16:03 | 50.88815 | 11.32664 | 35750 ft | 452 kts | 4° |
| 2026-05-06 16:04 | 50.95060 | 11.33844 | 35748 ft | 452 kts | 4° |
| 2026-05-06 16:04 | 51.01306 | 11.35028 | 35753 ft | 452 kts | 4° |
| 2026-05-06 16:05 | 51.07569 | 11.36219 | 35758 ft | 454 kts | 4° |
| 2026-05-06 16:05 | 51.13846 | 11.37416 | 35758 ft | 455 kts | 4° |
| 2026-05-06 16:06 | 51.20132 | 11.38619 | 35758 ft | 455 kts | 4° |
| 2026-05-06 16:06 | 51.26419 | 11.39825 | 35765 ft | 455 kts | 4° |
| 2026-05-06 16:07 | 51.32705 | 11.41034 | 35761 ft | 456 kts | 4° |
| 2026-05-06 16:07 | 51.39003 | 11.42248 | 35764 ft | 456 kts | 4° |
| 2026-05-06 16:08 | 51.45300 | 11.43467 | 35768 ft | 456 kts | 4° |
| 2026-05-06 16:08 | 51.51547 | 11.44679 | 35767 ft | 455 kts | 4° |
| 2026-05-06 16:09 | 51.57830 | 11.45901 | 35785 ft | 454 kts | 4° |
| 2026-05-06 16:09 | 51.64148 | 11.47133 | 35783 ft | 454 kts | 4° |
| 2026-05-06 16:10 | 51.70378 | 11.48351 | 35798 ft | 454 kts | 4° |
| 2026-05-06 16:10 | 51.76652 | 11.49581 | 35799 ft | 453 kts | 4° |
| 2026-05-06 16:11 | 51.82904 | 11.50811 | 35801 ft | 452 kts | 4° |
| 2026-05-06 16:11 | 51.89151 | 11.52043 | 35796 ft | 452 kts | 4° |
| 2026-05-06 16:12 | 51.95400 | 11.53279 | 35800 ft | 452 kts | 4° |
| 2026-05-06 16:12 | 52.01645 | 11.54518 | 35802 ft | 452 kts | 4° |
| 2026-05-06 16:13 | 52.07890 | 11.55760 | 35798 ft | 452 kts | 4° |
| 2026-05-06 16:13 | 52.14131 | 11.57004 | 35799 ft | 452 kts | 4° |
| 2026-05-06 16:14 | 52.20377 | 11.58254 | 35817 ft | 452 kts | 4° |
| 2026-05-06 16:14 | 52.26626 | 11.59507 | 35805 ft | 452 kts | 4° |
| 2026-05-06 16:15 | 52.32868 | 11.60763 | 35810 ft | 452 kts | 4° |
| 2026-05-06 16:15 | 52.39114 | 11.62022 | 35813 ft | 452 kts | 4° |
| 2026-05-06 16:16 | 52.45355 | 11.63285 | 35816 ft | 452 kts | 4° |
| 2026-05-06 16:16 | 52.51588 | 11.64550 | 35818 ft | 451 kts | 4° |
| 2026-05-06 16:17 | 52.57815 | 11.65817 | 35814 ft | 451 kts | 4° |
| 2026-05-06 16:17 | 52.64044 | 11.67087 | 35823 ft | 451 kts | 4° |
| 2026-05-06 16:18 | 52.70271 | 11.68361 | 35829 ft | 451 kts | 4° |
| 2026-05-06 16:18 | 52.76494 | 11.69638 | 35826 ft | 451 kts | 4° |
| 2026-05-06 16:19 | 52.82720 | 11.70920 | 35829 ft | 451 kts | 4° |
| 2026-05-06 16:19 | 52.88947 | 11.72205 | 35834 ft | 451 kts | 4° |
| 2026-05-06 16:20 | 52.95172 | 11.73494 | 35835 ft | 451 kts | 4° |
| 2026-05-06 16:20 | 53.01354 | 11.74777 | 35844 ft | 451 kts | 4° |
| 2026-05-06 16:21 | 53.07571 | 11.76072 | 35840 ft | 450 kts | 5° |
| 2026-05-06 16:21 | 53.13782 | 11.77369 | 35839 ft | 450 kts | 5° |
| 2026-05-06 16:22 | 53.18592 | 11.78375 | 35844 ft | 449 kts | 5° |
| 2026-05-06 16:22 | 53.20082 | 11.78688 | 35846 ft | 449 kts | 5° |
| 2026-05-06 16:36 | 53.24185 | 11.79549 | 35848 ft | 449 kts | 5° |
| 2026-05-06 16:36 | 53.30386 | 11.80854 | 35848 ft | 449 kts | 5° |
| 2026-05-06 16:37 | 53.36594 | 11.82164 | 35853 ft | 449 kts | 5° |
| 2026-05-06 16:37 | 53.42800 | 11.83477 | 35850 ft | 449 kts | 5° |
| 2026-05-06 16:38 | 53.48956 | 11.84785 | 35856 ft | 448 kts | 5° |
| 2026-05-06 16:38 | 53.55145 | 11.86102 | 35856 ft | 448 kts | 5° |
| 2026-05-06 16:39 | 53.61338 | 11.87425 | 35860 ft | 448 kts | 5° |
| 2026-05-06 16:39 | 53.67522 | 11.88749 | 35874 ft | 448 kts | 5° |
| 2026-05-06 16:40 | 53.73689 | 11.90074 | 35868 ft | 446 kts | 5° |
| 2026-05-06 16:40 | 53.79841 | 11.91400 | 35873 ft | 446 kts | 5° |
| 2026-05-06 16:41 | 53.85997 | 11.92730 | 35880 ft | 446 kts | 5° |
| 2026-05-06 16:41 | 53.92154 | 11.94063 | 35885 ft | 446 kts | 5° |
| 2026-05-06 16:42 | 53.97267 | 11.95175 | 35881 ft | 445 kts | 5° |
| 2026-05-06 16:42 | 54.03415 | 11.96515 | 35883 ft | 445 kts | 5° |
| 2026-05-06 16:43 | 54.09562 | 11.97858 | 35891 ft | 445 kts | 5° |
| 2026-05-06 16:43 | 54.15704 | 11.99205 | 35910 ft | 445 kts | 5° |
| 2026-05-06 16:44 | 54.21846 | 12.00556 | 35896 ft | 445 kts | 5° |
| 2026-05-06 16:44 | 54.27988 | 12.01910 | 35906 ft | 445 kts | 5° |
| 2026-05-06 16:45 | 54.34126 | 12.03268 | 35903 ft | 445 kts | 5° |
| 2026-05-06 16:45 | 54.40270 | 12.04631 | 35914 ft | 445 kts | 5° |
| 2026-05-06 16:46 | 54.46410 | 12.05997 | 35916 ft | 445 kts | 5° |
| 2026-05-06 16:46 | 54.52576 | 12.06743 | 35918 ft | 444 kts | 0° |
| 2026-05-06 16:47 | 54.58744 | 12.07167 | 35924 ft | 444 kts | 359° |
| 2026-05-06 16:47 | 54.64915 | 12.07528 | 35927 ft | 444 kts | 359° |
| 2026-05-06 16:48 | 54.71085 | 12.07895 | 35930 ft | 444 kts | 359° |
| 2026-05-06 16:48 | 54.77252 | 12.08275 | 35938 ft | 444 kts | 359° |
| 2026-05-06 16:49 | 54.83430 | 12.08662 | 35938 ft | 444 kts | 359° |
| 2026-05-06 16:49 | 54.89602 | 12.09051 | 35942 ft | 444 kts | 359° |
| 2026-05-06 16:50 | 54.95779 | 12.09442 | 35946 ft | 444 kts | 359° |
| 2026-05-06 16:50 | 55.01951 | 12.09832 | 35953 ft | 444 kts | 359° |
| 2026-05-06 16:51 | 55.08130 | 12.10224 | 35949 ft | 445 kts | 359° |
| 2026-05-06 16:51 | 55.14276 | 12.10615 | 35949 ft | 445 kts | 359° |
| 2026-05-06 16:52 | 55.20463 | 12.11011 | 35960 ft | 445 kts | 359° |
| 2026-05-06 16:52 | 55.26642 | 12.11407 | 35954 ft | 445 kts | 359° |
| 2026-05-06 16:53 | 55.32837 | 12.11805 | 35958 ft | 446 kts | 359° |
| 2026-05-06 16:53 | 55.39033 | 12.12204 | 35958 ft | 445 kts | 359° |
| 2026-05-06 16:54 | 55.45225 | 12.12605 | 35960 ft | 445 kts | 359° |
| 2026-05-06 16:54 | 55.51421 | 12.13007 | 35957 ft | 446 kts | 359° |
| 2026-05-06 16:55 | 55.57618 | 12.13410 | 35938 ft | 445 kts | 359° |
| 2026-05-06 16:55 | 55.63810 | 12.13814 | 35938 ft | 445 kts | 359° |
| 2026-05-06 16:56 | 55.70007 | 12.14220 | 35943 ft | 445 kts | 359° |
| 2026-05-06 16:56 | 55.76202 | 12.14628 | 35943 ft | 446 kts | 359° |
| 2026-05-06 16:57 | 55.82405 | 12.15036 | 35949 ft | 446 kts | 359° |
| 2026-05-06 16:57 | 55.88609 | 12.15446 | 35951 ft | 446 kts | 359° |
| 2026-05-06 16:58 | 55.94769 | 12.15855 | 35952 ft | 446 kts | 359° |
| 2026-05-06 16:58 | 56.00976 | 12.16268 | 35954 ft | 446 kts | 358° |
| 2026-05-06 16:59 | 56.07180 | 12.16683 | 35952 ft | 446 kts | 358° |
| 2026-05-06 16:59 | 56.13379 | 12.17098 | 35952 ft | 446 kts | 358° |
| 2026-05-06 17:00 | 56.19586 | 12.17514 | 35947 ft | 446 kts | 358° |
| 2026-05-06 17:00 | 56.25789 | 12.17933 | 35959 ft | 446 kts | 358° |
| 2026-05-06 17:01 | 56.31970 | 12.18018 | 35951 ft | 441 kts | 349° |
| 2026-05-06 17:01 | 56.38056 | 12.16696 | 35947 ft | 440 kts | 347° |
| 2026-05-06 17:02 | 56.44081 | 12.15012 | 35631 ft | 434 kts | 346° |
| 2026-05-06 17:02 | 56.47065 | 12.14145 | 35104 ft | 433 kts | 346° |
| 2026-05-06 17:02 | 56.50040 | 12.13282 | 34535 ft | 433 kts | 346° |
| 2026-05-06 17:02 | 56.53024 | 12.12424 | 33974 ft | 434 kts | 346° |
| 2026-05-06 17:03 | 56.56013 | 12.11572 | 33219 ft | 437 kts | 345° |
| 2026-05-06 17:03 | 56.59024 | 12.10721 | 32509 ft | 438 kts | 345° |
| 2026-05-06 17:03 | 56.62031 | 12.09877 | 31898 ft | 437 kts | 345° |
| 2026-05-06 17:03 | 56.65028 | 12.09039 | 31348 ft | 435 kts | 345° |
| 2026-05-06 17:04 | 56.68011 | 12.08205 | 30811 ft | 432 kts | 345° |
| 2026-05-06 17:04 | 56.70977 | 12.07374 | 30295 ft | 430 kts | 345° |
| 2026-05-06 17:04 | 56.73925 | 12.06546 | 29744 ft | 428 kts | 345° |
| 2026-05-06 17:04 | 56.76816 | 12.05731 | 29228 ft | 424 kts | 345° |
| 2026-05-06 17:05 | 56.79714 | 12.04914 | 28751 ft | 419 kts | 345° |
| 2026-05-06 17:05 | 56.82576 | 12.04105 | 28288 ft | 414 kts | 344° |
| 2026-05-06 17:05 | 56.85412 | 12.03302 | 27812 ft | 410 kts | 344° |
| 2026-05-06 17:05 | 56.88215 | 12.02505 | 27344 ft | 406 kts | 344° |
| 2026-05-06 17:06 | 56.90991 | 12.01715 | 26890 ft | 402 kts | 344° |
| 2026-05-06 17:06 | 56.93743 | 12.00928 | 26438 ft | 398 kts | 344° |
| 2026-05-06 17:06 | 56.96465 | 12.00148 | 25996 ft | 394 kts | 344° |
| 2026-05-06 17:06 | 56.99161 | 11.99375 | 25556 ft | 390 kts | 344° |
| 2026-05-06 17:07 | 57.01831 | 11.98609 | 25130 ft | 387 kts | 344° |
| 2026-05-06 17:07 | 57.04500 | 11.98012 | 24705 ft | 387 kts | 350° |
| 2026-05-06 17:07 | 57.07190 | 11.97873 | 24294 ft | 386 kts | 353° |
| 2026-05-06 17:07 | 57.09865 | 11.97858 | 23907 ft | 383 kts | 353° |
| 2026-05-06 17:08 | 57.12518 | 11.97860 | 23497 ft | 379 kts | 353° |
| 2026-05-06 17:08 | 57.15144 | 11.97860 | 23013 ft | 376 kts | 353° |
| 2026-05-06 17:08 | 57.17749 | 11.97855 | 22532 ft | 372 kts | 353° |
| 2026-05-06 17:08 | 57.20326 | 11.97847 | 22064 ft | 369 kts | 353° |
| 2026-05-06 17:09 | 57.22879 | 11.97837 | 21604 ft | 365 kts | 354° |
| 2026-05-06 17:09 | 57.25394 | 11.97829 | 21317 ft | 357 kts | 354° |
| 2026-05-06 17:09 | 57.27850 | 11.97821 | 20970 ft | 351 kts | 354° |
| 2026-05-06 17:09 | 57.30275 | 11.97810 | 20579 ft | 347 kts | 354° |
| 2026-05-06 17:10 | 57.32672 | 11.97797 | 20180 ft | 343 kts | 354° |
| 2026-05-06 17:10 | 57.35045 | 11.97785 | 19763 ft | 339 kts | 354° |
| 2026-05-06 17:10 | 57.37397 | 11.97774 | 19364 ft | 336 kts | 355° |
| 2026-05-06 17:10 | 57.39728 | 11.97762 | 18960 ft | 333 kts | 355° |
| 2026-05-06 17:11 | 57.42040 | 11.97751 | 18554 ft | 330 kts | 355° |
| 2026-05-06 17:11 | 57.44297 | 11.97740 | 18146 ft | 328 kts | 355° |
| 2026-05-06 17:11 | 57.46565 | 11.97730 | 17679 ft | 325 kts | 355° |
| 2026-05-06 17:11 | 57.48820 | 11.97719 | 17214 ft | 322 kts | 356° |
| 2026-05-06 17:12 | 57.51053 | 11.97709 | 16756 ft | 320 kts | 356° |
| 2026-05-06 17:12 | 57.53271 | 11.97699 | 16300 ft | 317 kts | 356° |
| 2026-05-06 17:12 | 57.55466 | 11.98060 | 15839 ft | 319 kts | 11° |
| 2026-05-06 17:12 | 57.57537 | 11.99579 | 15407 ft | 320 kts | 23° |
| 2026-05-06 17:13 | 57.59509 | 12.01467 | 14979 ft | 317 kts | 25° |
| 2026-05-06 17:13 | 57.61446 | 12.03393 | 14569 ft | 315 kts | 26° |
| 2026-05-06 17:13 | 57.63372 | 12.05309 | 14169 ft | 312 kts | 25° |
| 2026-05-06 17:13 | 57.65287 | 12.07205 | 13750 ft | 311 kts | 25° |
| 2026-05-06 17:14 | 57.67190 | 12.09081 | 13284 ft | 308 kts | 26° |
| 2026-05-06 17:14 | 57.69081 | 12.10941 | 12831 ft | 306 kts | 26° |
| 2026-05-06 17:14 | 57.70955 | 12.12785 | 12372 ft | 304 kts | 26° |
| 2026-05-06 17:14 | 57.72825 | 12.14625 | 11923 ft | 302 kts | 26° |
| 2026-05-06 17:15 | 57.74680 | 12.16451 | 11470 ft | 301 kts | 26° |
| 2026-05-06 17:15 | 57.76533 | 12.18276 | 11019 ft | 300 kts | 26° |
| 2026-05-06 17:15 | 57.78369 | 12.20088 | 10604 ft | 297 kts | 27° |
| 2026-05-06 17:15 | 57.80199 | 12.21894 | 10164 ft | 297 kts | 27° |
| 2026-05-06 17:16 | 57.82026 | 12.23700 | 9681 ft | 296 kts | 28° |
| 2026-05-06 17:16 | 57.83838 | 12.25492 | 9275 ft | 292 kts | 28° |
| 2026-05-06 17:16 | 57.85592 | 12.27251 | 9075 ft | 281 kts | 28° |
| 2026-05-06 17:16 | 57.87291 | 12.28939 | 8832 ft | 272 kts | 28° |
| 2026-05-06 17:17 | 57.88955 | 12.30570 | 8494 ft | 268 kts | 28° |
| 2026-05-06 17:17 | 57.90605 | 12.32204 | 8102 ft | 267 kts | 28° |
| 2026-05-06 17:17 | 57.92247 | 12.33829 | 7718 ft | 266 kts | 28° |
| 2026-05-06 17:17 | 57.93912 | 12.35471 | 7073 ft | 275 kts | 28° |
| 2026-05-06 17:18 | 57.95629 | 12.37153 | 6525 ft | 280 kts | 28° |
| 2026-05-06 17:18 | 57.97356 | 12.38829 | 6063 ft | 279 kts | 28° |
| 2026-05-06 17:18 | 57.99077 | 12.40498 | 5631 ft | 277 kts | 28° |
| 2026-05-06 17:18 | 58.00774 | 12.42145 | 5226 ft | 273 kts | 28° |
| 2026-05-06 17:19 | 58.02463 | 12.43771 | 5033 ft | 272 kts | 28° |
| 2026-05-06 17:19 | 58.04144 | 12.45423 | 5007 ft | 273 kts | 32° |
| 2026-05-06 17:19 | 58.05503 | 12.47829 | 5011 ft | 268 kts | 59° |
| 2026-05-06 17:19 | 58.06101 | 12.51102 | 5008 ft | 263 kts | 88° |
| 2026-05-06 17:20 | 58.05805 | 12.54455 | 5011 ft | 260 kts | 116° |
| 2026-05-06 17:20 | 58.04699 | 12.57099 | 5008 ft | 258 kts | 144° |
| 2026-05-06 17:20 | 58.03065 | 12.58426 | 5010 ft | 257 kts | 168° |
| 2026-05-06 17:20 | 58.01286 | 12.58746 | 4996 ft | 259 kts | 185° |
| 2026-05-06 17:21 | 57.99575 | 12.57860 | 5007 ft | 259 kts | 201° |
| 2026-05-06 17:21 | 57.97933 | 12.56468 | 5003 ft | 259 kts | 205° |
| 2026-05-06 17:21 | 57.96310 | 12.54978 | 5009 ft | 259 kts | 205° |
| 2026-05-06 17:21 | 57.94695 | 12.53474 | 4999 ft | 258 kts | 205° |
| 2026-05-06 17:22 | 57.93097 | 12.51989 | 4744 ft | 253 kts | 205° |
| 2026-05-06 17:22 | 57.91547 | 12.50559 | 4547 ft | 243 kts | 205° |
| 2026-05-06 17:22 | 57.90044 | 12.49174 | 4200 ft | 240 kts | 205° |
| 2026-05-06 17:22 | 57.88534 | 12.47810 | 3800 ft | 241 kts | 205° |
| 2026-05-06 17:23 | 57.87026 | 12.46460 | 3439 ft | 240 kts | 205° |
| 2026-05-06 17:23 | 57.85522 | 12.45129 | 3101 ft | 237 kts | 205° |
| 2026-05-06 17:23 | 57.84024 | 12.43830 | 2726 ft | 237 kts | 206° |
| 2026-05-06 17:23 | 57.82501 | 12.42567 | 2303 ft | 241 kts | 206° |
| 2026-05-06 17:24 | 57.80960 | 12.41323 | 2036 ft | 240 kts | 206° |
| 2026-05-06 17:24 | 57.79441 | 12.40058 | 1991 ft | 239 kts | 206° |
| 2026-05-06 17:24 | 57.77921 | 12.38785 | 1994 ft | 240 kts | 205° |
| 2026-05-06 17:24 | 57.77187 | 12.38170 | 1991 ft | 240 kts | 206° |
| 2026-05-06 17:25 | 57.75675 | 12.36892 | 1998 ft | 239 kts | 206° |
| 2026-05-06 17:25 | 57.74195 | 12.35543 | 1895 ft | 237 kts | 210° |
| 2026-05-06 17:25 | 57.72772 | 12.33981 | 1714 ft | 238 kts | 214° |
| 2026-05-06 17:25 | 57.71311 | 12.32496 | 1496 ft | 239 kts | 207° |
| 2026-05-06 17:26 | 57.69800 | 12.31278 | 1182 ft | 234 kts | 207° |
| 2026-05-06 17:26 | 57.68391 | 12.29933 | 842 ft | 221 kts | 212° |
| 2026-05-06 17:26 | 57.67042 | 12.28673 | 716 ft | 210 kts | 207° |
| 2026-05-06 17:26 | 57.65779 | 12.27647 | 859 ft | 184 kts | 206° |
| 2026-05-06 17:27 | 57.64634 | 12.26729 | 1214 ft | 193 kts | 208° |
| 2026-05-06 17:27 | 57.63253 | 12.25617 | 1531 ft | 239 kts | 206° |
| 2026-05-06 17:27 | 57.61614 | 12.24257 | 1771 ft | 271 kts | 206° |
| 2026-05-06 17:27 | 57.60096 | 12.22751 | 1978 ft | 225 kts | 221° |
| 2026-05-06 17:28 | 57.59299 | 12.20560 | 2016 ft | 190 kts | 259° |
| 2026-05-06 17:28 | 57.59336 | 12.18308 | 2040 ft | 183 kts | 287° |
| 2026-05-06 17:28 | 57.59845 | 12.15777 | 2061 ft | 226 kts | 294° |
| 2026-05-06 17:28 | 57.60443 | 12.13243 | 2005 ft | 200 kts | 295° |
| 2026-05-06 17:29 | 57.60985 | 12.10977 | 2016 ft | 187 kts | 295° |
| 2026-05-06 17:29 | 57.61350 | 12.09484 | 2013 ft | 188 kts | 298° |
| 2026-05-06 17:29 | 57.62630 | 12.07512 | 2010 ft | 185 kts | 346° |
| 2026-05-06 17:29 | 57.63916 | 12.07740 | 2028 ft | 192 kts | 17° |
| 2026-05-06 17:30 | 57.65148 | 12.08752 | 2016 ft | 196 kts | 24° |
| 2026-05-06 17:30 | 57.65972 | 12.09531 | 2019 ft | 196 kts | 24° |
| 2026-05-06 17:30 | 57.67178 | 12.10723 | 2018 ft | 196 kts | 26° |
| 2026-05-06 17:30 | 57.68382 | 12.11896 | 2025 ft | 195 kts | 26° |
| 2026-05-06 17:31 | 57.69574 | 12.13040 | 2023 ft | 195 kts | 24° |
| 2026-05-06 17:31 | 57.70778 | 12.14211 | 2028 ft | 196 kts | 25° |
| 2026-05-06 17:31 | 57.71982 | 12.15398 | 2021 ft | 195 kts | 25° |
| 2026-05-06 17:31 | 57.73185 | 12.16586 | 2019 ft | 195 kts | 26° |
| 2026-05-06 17:32 | 57.74390 | 12.17756 | 2031 ft | 195 kts | 25° |
| 2026-05-06 17:32 | 57.75590 | 12.18938 | 2017 ft | 195 kts | 25° |
| 2026-05-06 17:32 | 57.76651 | 12.20505 | 2019 ft | 195 kts | 43° |
| 2026-05-06 17:32 | 57.77571 | 12.22350 | 2014 ft | 193 kts | 45° |
| 2026-05-06 17:33 | 57.78469 | 12.24219 | 2021 ft | 193 kts | 45° |
| 2026-05-06 17:33 | 57.79368 | 12.26088 | 2015 ft | 193 kts | 45° |
| 2026-05-06 17:33 | 57.80253 | 12.27951 | 2066 ft | 190 kts | 46° |
| 2026-05-06 17:33 | 57.81142 | 12.29794 | 2022 ft | 192 kts | 45° |
| 2026-05-06 17:34 | 57.82046 | 12.31649 | 2015 ft | 192 kts | 44° |
| 2026-05-06 17:34 | 57.82843 | 12.33674 | 2009 ft | 197 kts | 65° |
| 2026-05-06 17:34 | 57.82921 | 12.36222 | 2019 ft | 201 kts | 104° |
| 2026-05-06 17:34 | 57.82150 | 12.38374 | 2019 ft | 202 kts | 143° |
| 2026-05-06 17:35 | 57.80861 | 12.39359 | 2022 ft | 202 kts | 169° |
| 2026-05-06 17:35 | 57.79470 | 12.39473 | 2015 ft | 200 kts | 195° |
| 2026-05-06 17:35 | 57.78204 | 12.38767 | 2018 ft | 181 kts | 202° |
| 2026-05-06 17:36 | 57.75954 | 12.37016 | 2022 ft | 174 kts | 207° |
| 2026-05-06 17:36 | 57.74865 | 12.36046 | 2020 ft | 173 kts | 207° |
| 2026-05-06 17:36 | 57.73782 | 12.35047 | 2024 ft | 174 kts | 210° |
| 2026-05-06 17:36 | 57.72701 | 12.34021 | 1940 ft | 175 kts | 211° |
| 2026-05-06 17:37 | 57.71633 | 12.32965 | 1671 ft | 171 kts | 211° |
| 2026-05-06 17:37 | 57.70611 | 12.31943 | 1316 ft | 165 kts | 211° |
| 2026-05-06 17:37 | 57.69595 | 12.31023 | 975 ft | 153 kts | 211° |
| 2026-05-06 17:37 | 57.68678 | 12.30177 | 815 ft | 144 kts | 209° |
| 2026-05-06 17:38 | 57.67783 | 12.29347 | 622 ft | 144 kts | 211° |
| 2026-05-06 17:38 | 57.66964 | 12.28598 | 530 ft | 94 kts | 206° |
| 2026-05-06 17:38 | 57.66716 | 12.28370 | 527 ft | 0 kts | 206° |
| 2026-05-06 17:38 | 57.66712 | 12.28367 | 527 ft | 5 kts | 203° |
| 2026-05-06 17:39 | 57.66655 | 12.28415 | 527 ft | 11 kts | 62° |
| 2026-05-06 17:39 | 57.66714 | 12.28554 | 527 ft | 17 kts | 56° |
| 2026-05-06 17:39 | 57.66721 | 12.28577 | 527 ft | 0 kts | 59° |
| 2026-05-06 17:39 | 57.66723 | 12.28583 | 527 ft | 1 kts | 59° |
| 2026-05-06 17:40 | 57.66726 | 12.28593 | 527 ft | 1 kts | 60° |
| 2026-05-06 17:40 | 57.66730 | 12.28606 | 527 ft | 1 kts | 60° |
| 2026-05-06 17:40 | 57.66735 | 12.28622 | 527 ft | 1 kts | 58° |
| 2026-05-06 17:40 | 57.66741 | 12.28638 | 528 ft | 2 kts | 57° |
| 2026-05-06 17:41 | 57.66750 | 12.28666 | 528 ft | 3 kts | 57° |
| 2026-05-06 17:41 | 57.66763 | 12.28701 | 528 ft | 3 kts | 56° |
| 2026-05-06 17:41 | 57.66775 | 12.28736 | 528 ft | 3 kts | 55° |
| 2026-05-06 17:41 | 57.66790 | 12.28772 | 528 ft | 3 kts | 48° |
| 2026-05-06 17:42 | 57.66808 | 12.28804 | 529 ft | 4 kts | 41° |
| 2026-05-06 17:42 | 57.66824 | 12.28841 | 529 ft | 4 kts | 60° |
| 2026-05-06 17:42 | 57.66829 | 12.28883 | 529 ft | 3 kts | 89° |
| 2026-05-06 17:42 | 57.66822 | 12.28921 | 529 ft | 3 kts | 116° |
| 2026-05-06 17:43 | 57.66811 | 12.28961 | 529 ft | 4 kts | 116° |
| 2026-05-06 17:43 | 57.66796 | 12.29016 | 529 ft | 5 kts | 116° |
| 2026-05-06 17:43 | 57.66779 | 12.29081 | 529 ft | 6 kts | 116° |
| 2026-05-06 17:43 | 57.66769 | 12.29116 | 529 ft | 0 kts | 116° |
| 2026-05-06 17:44 | 57.66770 | 12.29159 | 529 ft | 2 kts | 95° |
| 2026-05-06 17:45 | 57.66741 | 12.29220 | 529 ft | 11 kts | 118° |
| 2026-05-06 17:45 | 57.66730 | 12.29262 | 529 ft | 0 kts | 119° |
| 2026-05-06 17:45 | 57.66732 | 12.29256 | 529 ft | 0 kts | 126° |
| 2026-05-06 17:45 | 57.66732 | 12.29255 | 529 ft | 0 kts | 115° |